Eko 4 — SVAR8 — position and weather

sailwx.info

Track history (hours):
 
Tides and Currents Weather Stations Pressure Air Temp Water Temp Dewpoint Dewpoint Depression Visibility Wind Speed Wind Dir Waves Ship Positions

Eko 4

Last reported at 2016-Jun-24 04:33 UTC. Time now 2016-Jun-24 20:22 UTC.
Position N 37°50' E 023°30'.

Length 88 m; draft 5.5 m.

Type: Ship (hazmat cat A). MMSI: 240912000.

Date/timePositionNaut miles runAvg speedWind from/ knotsBaromVisibWave heightAir tempDewpointWater temp
2016-Jun-24 04:33N 37°50' E 023°30'6 5.7
2016-Jun-24 03:34N 37°55' E 023°33'0 0.0
2016-Jun-24 02:29N 37°55' E 023°33'0 0.0
2016-Jun-24 01:32N 37°55' E 023°33'0 0.0
2016-Jun-24 00:32N 37°55' E 023°33'0 0.0
2016-Jun-23 23:32N 37°55' E 023°33'0 0.0
2016-Jun-23 22:32N 37°55' E 023°33'0 0.0
2016-Jun-23 21:32N 37°55' E 023°33'0 0.0
2016-Jun-23 20:29N 37°55' E 023°33'0 0.0
2016-Jun-23 19:29N 37°55' E 023°33'0 0.0
2016-Jun-23 18:32N 37°55' E 023°33'0 0.0
2016-Jun-23 17:32N 37°55' E 023°33'1 0.5
2016-Jun-23 16:33N 37°55' E 023°33'9 8.7
2016-Jun-23 15:33N 37°48' E 023°40'  
2016-Jun-19 20:33N 37°12' E 025°45'14 9.2
2016-Jun-19 19:04N 37°15' E 025°29'4 8.8
2016-Jun-19 18:33N 37°16' E 025°23'9 8.7
2016-Jun-19 17:33N 37°17' E 025°12'12 8.9
2016-Jun-19 16:12N 37°19' E 024°57'50 8.8
2016-Jun-19 10:33N 37°35' E 023°58'9 9.5
2016-Jun-19 09:33N 37°38' E 023°46'9 9.2
2016-Jun-19 08:33N 37°45' E 023°39'10 9.7
2016-Jun-19 07:33N 37°55' E 023°35'7 7.5
2016-Jun-19 06:34N 38°02' E 023°32'0 0.3
2016-Jun-19 05:31N 38°01' E 023°31'0 0.0
2016-Jun-19 04:31N 38°01' E 023°31'0 0.0
2016-Jun-19 03:31N 38°01' E 023°31'0 0.0
2016-Jun-19 02:31N 38°01' E 023°31'0 0.0
2016-Jun-19 01:31N 38°01' E 023°31'1 0.1
2016-Jun-18 06:05N 38°02' E 023°30'2 3.5
2016-Jun-18 05:33N 38°01' E 023°32'5 5.4
2016-Jun-18 04:33N 37°56' E 023°34'0 0.1
2016-Jun-18 03:33N 37°56' E 023°34'0 0.0
2016-Jun-18 02:33N 37°56' E 023°34'0 0.0
2016-Jun-18 01:33N 37°56' E 023°34'0 0.0
2016-Jun-18 00:34N 37°56' E 023°34'0 0.0
2016-Jun-17 23:33N 37°56' E 023°34'3 2.8
2016-Jun-17 22:33N 37°53' E 023°36'10 9.5
2016-Jun-17 21:33N 37°45' E 023°42'9 8.7
2016-Jun-17 20:33N 37°39' E 023°50'47 9.5
2016-Jun-17 15:33N 37°22' E 024°46'10 9.6
2016-Jun-17 14:33N 37°19' E 024°57'1010.1
2016-Jun-17 13:33N 37°17' E 025°10'10 9.9
2016-Jun-17 12:34N 37°17' E 025°22'21 9.7
2016-Jun-17 10:22N 37°12' E 025°48'  
2016-Jun-14 20:33N 37°16' E 025°25'9 9.4
2016-Jun-14 19:34N 37°17' E 025°13'13 9.5
2016-Jun-14 18:12N 37°19' E 024°57'51 9.1
2016-Jun-14 12:32N 37°35' E 023°56'9 9.3
2016-Jun-14 11:33N 37°39' E 023°45'9 8.9
2016-Jun-14 10:33N 37°46' E 023°39'9 8.8
2016-Jun-14 09:33N 37°50' E 023°29'  
Track history (hours):
 
Tides and Currents Weather Stations Pressure Air Temp Water Temp Dewpoint Dewpoint Depression Visibility Wind Speed Wind Dir Waves Ship Positions

Eko 4

Last reported at 2016-Jun-24 04:33 UTC. Time now 2016-Jun-24 20:22 UTC.
Position N 37°50' E 023°30'.

Length 88 m; draft 5.5 m.

Type: Ship (hazmat cat A). MMSI: 240912000.

Date/timePositionNaut miles runAvg speedWind from/ knotsBaromVisibWave heightAir tempDewpointWater temp
2016-Jun-24 04:33N 37°50' E 023°30'6 5.7
2016-Jun-24 03:34N 37°55' E 023°33'0 0.0
2016-Jun-24 02:29N 37°55' E 023°33'0 0.0
2016-Jun-24 01:32N 37°55' E 023°33'0 0.0
2016-Jun-24 00:32N 37°55' E 023°33'0 0.0
2016-Jun-23 23:32N 37°55' E 023°33'0 0.0
2016-Jun-23 22:32N 37°55' E 023°33'0 0.0
2016-Jun-23 21:32N 37°55' E 023°33'0 0.0
2016-Jun-23 20:29N 37°55' E 023°33'0 0.0
2016-Jun-23 19:29N 37°55' E 023°33'0 0.0
2016-Jun-23 18:32N 37°55' E 023°33'0 0.0
2016-Jun-23 17:32N 37°55' E 023°33'1 0.5
2016-Jun-23 16:33N 37°55' E 023°33'9 8.7
2016-Jun-23 15:33N 37°48' E 023°40'  
2016-Jun-19 20:33N 37°12' E 025°45'14 9.2
2016-Jun-19 19:04N 37°15' E 025°29'4 8.8
2016-Jun-19 18:33N 37°16' E 025°23'9 8.7
2016-Jun-19 17:33N 37°17' E 025°12'12 8.9
2016-Jun-19 16:12N 37°19' E 024°57'50 8.8
2016-Jun-19 10:33N 37°35' E 023°58'9 9.5
2016-Jun-19 09:33N 37°38' E 023°46'9 9.2
2016-Jun-19 08:33N 37°45' E 023°39'10 9.7
2016-Jun-19 07:33N 37°55' E 023°35'7 7.5
2016-Jun-19 06:34N 38°02' E 023°32'0 0.3
2016-Jun-19 05:31N 38°01' E 023°31'0 0.0
2016-Jun-19 04:31N 38°01' E 023°31'0 0.0
2016-Jun-19 03:31N 38°01' E 023°31'0 0.0
2016-Jun-19 02:31N 38°01' E 023°31'0 0.0
2016-Jun-19 01:31N 38°01' E 023°31'1 0.1
2016-Jun-18 06:05N 38°02' E 023°30'2 3.5
2016-Jun-18 05:33N 38°01' E 023°32'5 5.4
2016-Jun-18 04:33N 37°56' E 023°34'0 0.1
2016-Jun-18 03:33N 37°56' E 023°34'0 0.0
2016-Jun-18 02:33N 37°56' E 023°34'0 0.0
2016-Jun-18 01:33N 37°56' E 023°34'0 0.0
2016-Jun-18 00:34N 37°56' E 023°34'0 0.0
2016-Jun-17 23:33N 37°56' E 023°34'3 2.8
2016-Jun-17 22:33N 37°53' E 023°36'10 9.5
2016-Jun-17 21:33N 37°45' E 023°42'9 8.7
2016-Jun-17 20:33N 37°39' E 023°50'47 9.5
2016-Jun-17 15:33N 37°22' E 024°46'10 9.6
2016-Jun-17 14:33N 37°19' E 024°57'1010.1
2016-Jun-17 13:33N 37°17' E 025°10'10 9.9
2016-Jun-17 12:34N 37°17' E 025°22'21 9.7
2016-Jun-17 10:22N 37°12' E 025°48'  
2016-Jun-14 20:33N 37°16' E 025°25'9 9.4
2016-Jun-14 19:34N 37°17' E 025°13'13 9.5
2016-Jun-14 18:12N 37°19' E 024°57'51 9.1
2016-Jun-14 12:32N 37°35' E 023°56'9 9.3
2016-Jun-14 11:33N 37°39' E 023°45'9 8.9
2016-Jun-14 10:33N 37°46' E 023°39'9 8.8
2016-Jun-14 09:33N 37°50' E 023°29'  

Dump ship's entire track history